Time;durP1;ratioP1;P1;durP2;ratioP2;P2;SDS_P1;SDS_P2;PMS_P1;PMS_P2;Temp;Humidity;BMP_temperature;BMP_pressure;BME280_temperature;BME280_humidity;BME280_pressure;Samples;Min_cycle;Max_cycle;Signal;HPM_P1;HPM_P2
2023/10/04 00:03:46;;;;;;;1.75;0.90;;;;;;;11.09;100.00;99195.59;15300070;19;20006;-51
2023/10/04 00:09:11;;;;;;;1.75;1.05;;;;;;;11.12;100.00;99194.44;15300757;19;20021;-53
2023/10/04 00:14:36;;;;;;;1.73;1.00;;;;;;;11.14;100.00;99199.66;15297009;19;20026;-56
2023/10/04 00:20:07;;;;;;;1.92;1.00;;;;;;;11.18;100.00;99207.31;15299777;19;20017;-54
2023/10/04 00:25:33;;;;;;;1.83;1.00;;;;;;;11.19;100.00;99189.31;15292804;19;20094;-50
2023/10/04 00:30:57;;;;;;;3.88;1.23;;;;;;;11.09;100.00;99202.81;15298373;19;20021;-51
2023/10/04 00:36:25;;;;;;;3.92;1.30;;;;;;;11.11;100.00;99214.31;15298940;19;20086;-53
2023/10/04 00:41:53;;;;;;;2.15;1.13;;;;;;;11.02;100.00;99210.63;15357195;19;20015;-55
2023/10/04 00:47:25;;;;;;;2.08;1.08;;;;;;;11.04;100.00;99211.34;15290333;19;20364;-55
2023/10/04 00:52:58;;;;;;;2.45;1.17;;;;;;;11.06;100.00;99220.13;15293760;19;20031;-54
2023/10/04 00:58:25;;;;;;;2.75;1.17;;;;;;;11.10;100.00;99221.56;15286219;19;20486;-55
2023/10/04 01:03:50;;;;;;;2.80;1.30;;;;;;;11.16;100.00;99243.53;15290523;19;20728;-53
2023/10/04 01:09:22;;;;;;;2.08;1.10;;;;;;;11.23;100.00;99220.41;15292797;19;20022;-55
2023/10/04 01:14:49;;;;;;;2.28;1.00;;;;;;;11.24;100.00;99227.47;15288633;19;20099;-54
2023/10/04 01:20:27;;;;;;;2.15;1.00;;;;;;;11.24;100.00;99235.56;15295521;19;20025;-54
2023/10/04 01:25:55;;;;;;;2.35;1.05;;;;;;;11.17;100.00;99221.78;15288673;19;20400;-52
2023/10/04 01:31:20;;;;;;;2.05;1.00;;;;;;;11.16;100.00;99227.34;15286855;19;20022;-52
2023/10/04 01:36:44;;;;;;;2.65;1.10;;;;;;;11.17;100.00;99229.88;15289817;19;20018;-50
2023/10/04 01:42:12;;;;;;;2.97;1.30;;;;;;;11.17;100.00;99226.34;15291932;19;20010;-50
2023/10/04 01:47:43;;;;;;;2.20;1.00;;;;;;;11.23;100.00;99231.19;15287678;19;20010;-52
2023/10/04 01:53:09;;;;;;;3.50;1.20;;;;;;;11.13;100.00;99225.81;15288886;19;20015;-53
2023/10/04 01:58:37;;;;;;;2.67;1.20;;;;;;;11.14;100.00;99232.03;15279833;19;20045;-52
2023/10/04 02:04:05;;;;;;;2.65;1.10;;;;;;;11.06;100.00;99243.53;15286983;19;20049;-50
2023/10/04 02:09:30;;;;;;;2.63;1.10;;;;;;;10.96;100.00;99246.25;15288141;19;20022;-49
2023/10/04 02:14:58;;;;;;;2.42;1.42;;;;;;;10.97;100.00;99247.97;15282910;19;20014;-51
2023/10/04 02:20:26;;;;;;;1.98;1.30;;;;;;;11.07;100.00;99248.81;15289797;19;20022;-48
2023/10/04 02:25:52;;;;;;;2.80;1.10;;;;;;;11.03;100.00;99247.38;15286028;19;20019;-50
2023/10/04 02:31:19;;;;;;;2.25;1.00;;;;;;;11.09;100.00;99238.72;15280590;19;20446;-49
2023/10/04 02:36:45;;;;;;;3.63;1.35;;;;;;;11.08;100.00;99239.72;15284339;19;20094;-50
2023/10/04 02:42:11;;;;;;;3.50;1.30;;;;;;;11.14;100.00;99234.72;15286494;19;20046;-49
2023/10/04 02:47:48;;;;;;;3.28;1.30;;;;;;;11.20;100.00;99248.50;15284427;19;20010;-48
2023/10/04 02:53:14;;;;;;;3.70;1.50;;;;;;;11.22;100.00;99254.59;15283664;19;20385;-49
2023/10/04 02:58:40;;;;;;;3.72;1.30;;;;;;;11.22;100.00;99257.28;15282024;19;20019;-52
2023/10/04 03:04:09;;;;;;;1.90;1.15;;;;;;;11.22;100.00;99259.97;15279961;19;20018;-54
2023/10/04 03:09:37;;;;;;;1.80;1.30;;;;;;;11.13;100.00;99257.28;15297011;19;20018;-50
2023/10/04 03:15:03;;;;;;;2.47;1.30;;;;;;;11.13;100.00;99257.28;15293524;19;20420;-50
2023/10/04 03:20:32;;;;;;;2.92;1.60;;;;;;;11.06;100.00;99257.03;15302359;19;20022;-49
2023/10/04 03:25:58;;;;;;;3.65;1.40;;;;;;;11.01;100.00;99270.09;15296712;19;20037;-49
2023/10/04 03:31:24;;;;;;;3.28;1.20;;;;;;;10.94;100.00;99280.59;15299422;19;20027;-51
2023/10/04 03:36:53;;;;;;;3.08;1.40;;;;;;;10.91;100.00;99279.06;15291482;19;20494;-49
2023/10/04 03:42:18;;;;;;;1.92;1.20;;;;;;;10.95;100.00;99282.31;15298780;19;20023;-53
2023/10/04 03:47:50;;;;;;;1.75;1.10;;;;;;;10.90;100.00;99292.66;15294959;19;20019;-54
2023/10/04 03:53:20;;;;;;;1.98;1.30;;;;;;;10.91;100.00;99292.53;15296213;19;20011;-47
2023/10/04 03:58:46;;;;;;;2.35;1.35;;;;;;;10.86;100.00;99291.25;15295474;19;20018;-50
2023/10/04 04:04:14;;;;;;;2.92;1.45;;;;;;;10.81;100.00;99296.19;15296324;19;20011;-51
2023/10/04 04:09:43;;;;;;;2.15;1.40;;;;;;;10.75;100.00;99303.00;15290432;19;20011;-52
2023/10/04 04:15:14;;;;;;;2.80;1.27;;;;;;;10.83;100.00;99294.22;15294617;19;20041;-53
2023/10/04 04:20:41;;;;;;;2.55;1.38;;;;;;;10.79;100.00;99293.66;15299671;19;20035;-51
2023/10/04 04:26:11;;;;;;;3.47;1.48;;;;;;;10.77;100.00;99292.94;15294644;19;20026;-49
2023/10/04 04:31:40;;;;;;;4.03;1.20;;;;;;;10.70;100.00;99289.13;15296575;19;20010;-55
2023/10/04 04:37:08;;;;;;;2.53;1.52;;;;;;;10.58;100.00;99300.03;15292311;19;20085;-49
2023/10/04 04:42:42;;;;;;;2.20;1.27;;;;;;;10.63;100.00;99305.00;15289632;19;20363;-54
2023/10/04 04:48:15;;;;;;;2.60;1.40;;;;;;;10.58;100.00;99296.47;15289600;19;20010;-54
2023/10/04 04:53:45;;;;;;;3.75;1.45;;;;;;;10.56;100.00;99301.13;15291926;19;20405;-50
2023/10/04 04:59:20;;;;;;;1.75;1.30;;;;;;;10.54;100.00;99306.69;15292394;19;20365;-55
2023/10/04 05:04:47;;;;;;;2.88;1.20;;;;;;;10.50;100.00;99302.56;15291835;19;20093;-53
2023/10/04 05:10:13;;;;;;;1.60;1.30;;;;;;;10.46;100.00;99307.38;15296559;19;20037;-49
2023/10/04 05:15:42;;;;;;;3.22;1.60;;;;;;;10.42;100.00;99310.47;15284968;19;20020;-49
2023/10/04 05:21:10;;;;;;;2.17;1.50;;;;;;;10.40;100.00;99305.25;15296105;19;20078;-49
2023/10/04 05:26:37;;;;;;;2.22;1.40;;;;;;;10.35;100.00;99312.84;15291300;19;20043;-49
2023/10/04 05:32:04;;;;;;;2.92;1.70;;;;;;;10.38;100.00;99317.13;15291702;19;20371;-50
2023/10/04 05:37:29;;;;;;;2.45;1.50;;;;;;;10.37;100.00;99316.25;15291062;19;20037;-50
2023/10/04 05:42:54;;;;;;;2.67;1.50;;;;;;;10.24;100.00;99329.13;15291297;19;20407;-52
2023/10/04 05:48:29;;;;;;;2.53;1.73;;;;;;;10.25;100.00;99322.75;14776382;19;10001684;-50
2023/10/04 05:53:54;;;;;;;4.68;1.70;;;;;;;10.21;100.00;99329.38;15288691;19;20090;-51
2023/10/04 05:59:18;;;;;;;2.85;1.70;;;;;;;10.20;100.00;99341.13;15291256;19;20025;-54
2023/10/04 06:04:47;;;;;;;5.32;1.73;;;;;;;10.21;100.00;99345.53;15288819;19;20019;-52
2023/10/04 06:10:14;;;;;;;2.92;1.85;;;;;;;10.25;100.00;99355.91;15289927;19;20018;-52
2023/10/04 06:15:41;;;;;;;2.17;1.67;;;;;;;10.29;100.00;99362.72;15285638;19;20018;-53
2023/10/04 06:21:09;;;;;;;3.45;1.90;;;;;;;10.33;100.00;99364.16;15285401;19;20010;-52
2023/10/04 06:26:34;;;;;;;3.13;1.83;;;;;;;10.40;100.00;99374.41;15287725;19;20384;-54
2023/10/04 06:31:59;;;;;;;3.45;1.90;;;;;;;10.45;100.00;99385.66;15287970;19;20040;-52
2023/10/04 06:37:27;;;;;;;2.95;1.70;;;;;;;10.51;100.00;99393.16;15284553;19;20329;-51
2023/10/04 06:42:53;;;;;;;3.40;1.52;;;;;;;10.62;100.00;99397.63;15286179;19;20031;-55
2023/10/04 06:48:25;;;;;;;3.50;1.65;;;;;;;10.70;100.00;99413.94;15281509;19;20015;-53
2023/10/04 06:53:53;;;;;;;2.60;1.60;;;;;;;10.85;100.00;99416.25;15281277;19;20612;-52
2023/10/04 06:59:18;;;;;;;5.10;1.70;;;;;;;10.96;100.00;99416.13;15285154;19;20019;-54
2023/10/04 07:04:43;;;;;;;3.90;1.60;;;;;;;11.05;100.00;99417.97;15285528;19;20018;-55
2023/10/04 07:10:13;;;;;;;2.55;1.35;;;;;;;11.19;100.00;99419.41;15289655;19;20019;-52
2023/10/04 07:15:39;;;;;;;3.00;1.50;;;;;;;11.31;100.00;99422.84;15283320;19;20035;-55
2023/10/04 07:21:04;;;;;;;2.38;1.52;;;;;;;11.42;100.00;99419.13;15286406;19;20100;-57
2023/10/04 07:26:35;;;;;;;3.22;1.60;;;;;;;11.49;100.00;99431.06;15221088;19;20014;-56
2023/10/04 07:32:00;;;;;;;2.65;1.60;;;;;;;11.60;100.00;99432.75;15100475;19;2005749;-51
2023/10/04 07:37:25;;;;;;;4.15;1.70;;;;;;;11.75;100.00;99430.50;15282537;19;20029;-52
2023/10/04 07:42:55;;;;;;;2.95;1.50;;;;;;;11.85;100.00;99430.47;15283744;19;20395;-54
2023/10/04 07:48:29;;;;;;;2.72;1.50;;;;;;;12.02;100.00;99440.56;15274523;19;20034;-52
2023/10/04 07:53:55;;;;;;;2.60;1.50;;;;;;;12.21;100.00;99459.59;15283905;19;20522;-55
2023/10/04 07:59:23;;;;;;;3.67;1.20;;;;;;;12.62;100.00;99424.97;15299625;19;20418;-52
2023/10/04 08:04:48;;;;;;;3.65;1.40;;;;;;;12.85;100.00;99420.03;15297663;19;20105;-54
2023/10/04 08:10:15;;;;;;;3.80;1.30;;;;;;;12.97;100.00;99399.03;15277273;19;20074;-58
2023/10/04 08:15:43;;;;;;;2.75;1.40;;;;;;;13.11;100.00;99405.78;15292654;19;20095;-52
2023/10/04 08:21:15;;;;;;;4.53;1.67;;;;;;;13.19;100.00;99408.56;15300142;19;20010;-55
2023/10/04 08:26:40;;;;;;;2.25;1.40;;;;;;;13.26;100.00;99417.75;15290852;19;20018;-55
2023/10/04 08:32:08;;;;;;;2.90;1.50;;;;;;;13.46;100.00;99417.66;15297869;19;20759;-56
2023/10/04 08:37:33;;;;;;;1.92;1.33;;;;;;;13.47;100.00;99410.38;15295292;19;20043;-53
2023/10/04 08:42:59;;;;;;;2.58;1.30;;;;;;;13.58;100.00;99395.75;15294564;19;20042;-55
2023/10/04 08:48:27;;;;;;;2.72;1.50;;;;;;;13.71;100.00;99396.16;15289521;19;20039;-52
2023/10/04 08:53:58;;;;;;;2.20;1.35;;;;;;;13.82;100.00;99401.31;15293253;19;20475;-56
2023/10/04 08:59:25;;;;;;;3.05;1.42;;;;;;;13.92;100.00;99411.25;15286479;19;20015;-55
2023/10/04 09:04:55;;;;;;;2.50;1.30;;;;;;;14.05;100.00;99419.78;15290393;19;20074;-53
2023/10/04 09:10:21;;;;;;;2.35;1.20;;;;;;;14.31;100.00;99408.94;15294272;19;20019;-58
2023/10/04 09:15:45;;;;;;;1.65;1.10;;;;;;;14.54;100.00;99411.06;15288756;19;20029;-52
2023/10/04 09:21:26;;;;;;;2.72;1.27;;;;;;;14.68;100.00;99409.63;15293762;19;20018;-52
2023/10/04 09:26:55;;;;;;;2.42;1.20;;;;;;;14.93;100.00;99412.44;15289390;19;20049;-58
2023/10/04 09:32:22;;;;;;;2.85;1.20;;;;;;;15.01;100.00;99411.59;15288098;19;20006;-55
2023/10/04 09:37:50;;;;;;;2.40;1.10;;;;;;;15.07;100.00;99417.22;15288452;19;20022;-53
2023/10/04 09:43:15;;;;;;;2.03;1.10;;;;;;;15.26;100.00;99420.66;15290834;19;20015;-56
2023/10/04 09:48:49;;;;;;;2.20;1.10;;;;;;;15.25;100.00;99410.81;15290520;19;20063;-55
2023/10/04 09:54:18;;;;;;;2.13;1.10;;;;;;;15.63;100.00;99402.19;15292875;19;20417;-55
2023/10/04 09:59:44;;;;;;;3.60;1.13;;;;;;;15.66;100.00;99401.81;15291274;19;20022;-54
2023/10/04 10:05:12;;;;;;;3.75;1.20;;;;;;;15.74;100.00;99410.00;15284205;19;20366;-53
2023/10/04 10:10:42;;;;;;;2.60;1.10;;;;;;;15.75;100.00;99405.41;15292658;19;20019;-53
2023/10/04 10:16:11;;;;;;;2.35;1.00;;;;;;;15.64;100.00;99398.47;15286111;19;20461;-51
2023/10/04 10:22:06;;;;;;;3.47;1.30;;;;;;;15.63;100.00;99413.06;15282043;19;20015;-54
2023/10/04 10:27:34;;;;;;;3.00;1.38;;;;;;;15.54;100.00;99414.91;15287860;19;20046;-51
2023/10/04 10:33:00;;;;;;;3.03;1.30;;;;;;;15.59;100.00;99408.97;15288183;19;20452;-54
2023/10/04 10:38:48;;;;;;;2.45;1.25;;;;;;;15.69;100.00;99399.66;15280583;19;20078;-55
2023/10/04 10:44:33;;;;;;;3.67;1.40;;;;;;;15.65;100.00;99395.56;15285560;19;20169;-55
2023/10/04 10:50:01;;;;;;;2.00;1.10;;;;;;;15.59;100.00;99400.81;15287075;19;20018;-53
2023/10/04 10:55:27;;;;;;;1.85;1.10;;;;;;;15.69;100.00;99385.19;15283538;19;20018;-53
2023/10/04 11:00:57;;;;;;;2.20;1.25;;;;;;;15.81;100.00;99383.00;15284270;19;20011;-51
2023/10/04 11:06:23;;;;;;;4.05;1.20;;;;;;;15.91;100.00;99383.69;15280540;19;20700;-53
2023/10/04 11:11:49;;;;;;;3.40;1.42;;;;;;;16.05;100.00;99375.84;15278849;19;20078;-51
2023/10/04 11:17:18;;;;;;;2.03;1.00;;;;;;;15.97;100.00;99371.28;15280126;19;20022;-57
2023/10/04 11:22:44;;;;;;;1.98;1.20;;;;;;;16.06;100.00;99381.09;15283699;19;20046;-52
2023/10/04 11:28:11;;;;;;;2.78;1.20;;;;;;;16.15;100.00;99379.22;15286203;19;20535;-52
2023/10/04 11:33:59;;;;;;;3.65;1.50;;;;;;;16.20;100.00;99376.81;15299385;19;20025;-52
2023/10/04 11:39:25;;;;;;;2.60;1.42;;;;;;;16.24;100.00;99389.06;15295619;19;20014;-57
2023/10/04 11:44:52;;;;;;;2.03;1.30;;;;;;;15.96;100.00;99366.88;15297829;19;20355;-52
2023/10/04 11:50:19;;;;;;;2.88;1.40;;;;;;;15.69;100.00;99364.34;15298731;19;20030;-55
2023/10/04 11:55:44;;;;;;;3.08;1.50;;;;;;;15.62;100.00;99362.47;15293733;19;20029;-53
2023/10/04 12:01:12;;;;;;;2.45;1.20;;;;;;;15.79;100.00;99358.69;15297826;19;20380;-52
2023/10/04 12:06:39;;;;;;;3.88;1.40;;;;;;;16.06;100.00;99358.50;15294869;19;20018;-55
2023/10/04 12:12:05;;;;;;;2.58;1.40;;;;;;;16.08;100.00;99356.47;15288121;19;20022;-55
2023/10/04 12:17:30;;;;;;;2.30;1.50;;;;;;;16.23;100.00;99357.44;15290978;19;20355;-51
2023/10/04 12:23:01;;;;;;;2.30;1.20;;;;;;;16.07;100.00;99352.03;15296181;19;20010;-52
2023/10/04 12:28:29;;;;;;;3.53;1.30;;;;;;;16.24;100.00;99344.69;15292983;19;20023;-53
2023/10/04 12:33:55;;;;;;;3.78;1.20;;;;;;;16.51;100.00;99340.69;15296255;19;20021;-55
2023/10/04 12:39:23;;;;;;;2.85;1.38;;;;;;;16.54;100.00;99348.47;15294375;19;20476;-55
2023/10/04 12:44:48;;;;;;;2.50;1.40;;;;;;;16.55;100.00;99350.16;15288662;19;20095;-51
2023/10/04 12:50:15;;;;;;;3.10;1.55;;;;;;;16.64;100.00;99340.94;15296045;19;20026;-57
2023/10/04 12:55:43;;;;;;;1.88;1.30;;;;;;;16.49;100.00;99345.44;15289315;19;20010;-54
2023/10/04 13:01:08;;;;;;;2.40;1.30;;;;;;;16.30;100.00;99344.81;15288903;19;20021;-56
2023/10/04 13:06:34;;;;;;;1.85;1.20;;;;;;;16.56;100.00;99349.13;15285325;19;20011;-55
2023/10/04 13:12:03;;;;;;;2.42;1.25;;;;;;;16.67;100.00;99337.03;15292550;19;20015;-55
2023/10/04 13:17:39;;;;;;;1.42;1.10;;;;;;;16.58;100.00;99344.38;15285412;19;20118;-53
2023/10/04 13:23:05;;;;;;;2.20;1.33;;;;;;;16.75;100.00;99344.31;15294920;19;20078;-56
2023/10/04 13:28:34;;;;;;;2.45;1.40;;;;;;;16.73;100.00;99333.59;15288702;19;20366;-54
2023/10/04 13:33:53;;;;;;;3.22;1.30;;;;;;;16.60;100.00;99328.72;15292236;19;20864;-51
2023/10/04 13:39:18;;;;;;;2.65;1.45;;;;;;;16.37;100.00;99322.38;15288943;19;20010;-52
2023/10/04 13:44:47;;;;;;;3.22;1.60;;;;;;;16.27;100.00;99325.31;15287386;19;20017;-52
2023/10/04 13:50:13;;;;;;;2.50;1.60;;;;;;;16.10;100.00;99322.66;15283602;19;20377;-53
2023/10/04 13:55:38;;;;;;;2.83;1.50;;;;;;;16.02;100.00;99318.09;15288038;19;20026;-54
2023/10/04 14:01:06;;;;;;;1.73;1.40;;;;;;;15.89;100.00;99319.63;15290797;19;20078;-53
2023/10/04 14:06:31;;;;;;;3.15;1.60;;;;;;;15.83;100.00;99311.16;15289258;19;20015;-53
2023/10/04 14:11:56;;;;;;;4.00;1.65;;;;;;;15.88;100.00;99320.69;15289586;19;20021;-50
2023/10/04 14:17:23;;;;;;;2.47;1.65;;;;;;;16.30;100.00;99308.63;15285334;19;20096;-55
2023/10/04 14:22:49;;;;;;;2.63;1.48;;;;;;;16.55;100.00;99305.81;15284990;19;20018;-54
2023/10/04 14:28:14;;;;;;;2.33;1.50;;;;;;;16.50;100.00;99306.34;15287158;19;20026;-52
2023/10/04 14:33:41;;;;;;;3.88;1.70;;;;;;;16.37;100.00;99319.66;15290586;19;20010;-50
2023/10/04 14:39:08;;;;;;;3.42;2.00;;;;;;;16.25;100.00;99311.91;15286690;19;20031;-50
2023/10/04 14:44:42;;;;;;;3.80;1.67;;;;;;;16.10;100.00;99305.47;15285785;19;20014;-52
2023/10/04 14:50:13;;;;;;;2.88;1.75;;;;;;;15.96;100.00;99310.63;15287279;19;20018;-54
2023/10/04 14:55:38;;;;;;;1.80;1.60;;;;;;;15.89;100.00;99308.78;15279791;19;20360;-54
2023/10/04 15:01:05;;;;;;;3.60;1.60;;;;;;;15.75;100.00;99292.16;15288839;19;20427;-53
2023/10/04 15:06:32;;;;;;;3.15;1.80;;;;;;;15.70;100.00;99289.09;15283086;19;20031;-55
2023/10/04 15:11:57;;;;;;;3.08;1.77;;;;;;;15.64;100.00;99293.34;15287224;19;20102;-52
2023/10/04 15:17:21;;;;;;;5.15;1.60;;;;;;;15.60;100.00;99300.13;15282760;19;20023;-53
2023/10/04 15:22:51;;;;;;;2.88;1.60;;;;;;;15.51;100.00;99299.31;15281938;19;20359;-50
2023/10/04 15:28:17;;;;;;;2.75;1.80;;;;;;;15.43;100.00;99309.34;15276482;19;20198;-52
2023/10/04 15:33:44;;;;;;;2.78;1.60;;;;;;;15.39;100.00;99309.69;15282904;19;20750;-53
2023/10/04 15:39:20;;;;;;;3.60;1.77;;;;;;;15.22;100.00;99313.44;15280561;19;20019;-53
2023/10/04 15:44:46;;;;;;;2.75;1.77;;;;;;;15.09;100.00;99303.94;15283229;19;20029;-50
2023/10/04 15:50:14;;;;;;;2.63;1.73;;;;;;;15.00;100.00;99312.22;15259623;19;20028;-51
2023/10/04 15:55:42;;;;;;;3.28;1.70;;;;;;;14.89;100.00;99308.81;15279025;19;20022;-51
2023/10/04 16:01:07;;;;;;;2.53;1.60;;;;;;;14.79;100.00;99300.00;15280116;19;20024;-52
2023/10/04 16:06:37;;;;;;;3.13;1.90;;;;;;;14.69;100.00;99302.00;15279252;19;20022;-51
2023/10/04 16:12:05;;;;;;;2.33;1.63;;;;;;;14.60;100.00;99309.22;15282203;19;20224;-51
2023/10/04 16:17:30;;;;;;;4.88;1.88;;;;;;;14.44;100.00;99310.88;15290524;19;20014;-52
2023/10/04 16:22:57;;;;;;;2.92;1.92;;;;;;;14.33;100.00;99308.47;15297820;19;20120;-53
2023/10/04 16:28:25;;;;;;;3.63;1.80;;;;;;;14.21;100.00;99305.22;15290707;19;20021;-54
2023/10/04 16:33:50;;;;;;;2.20;1.60;;;;;;;14.14;100.00;99302.31;15289939;19;20046;-53
2023/10/04 16:39:15;;;;;;;2.95;1.90;;;;;;;13.98;100.00;99305.78;15290956;19;20053;-52
2023/10/04 16:44:42;;;;;;;3.42;1.80;;;;;;;13.86;100.00;99307.91;15293914;19;20086;-54
2023/10/04 16:50:08;;;;;;;2.85;1.63;;;;;;;13.76;100.00;99319.88;15295982;19;20007;-53
2023/10/04 16:55:33;;;;;;;2.67;1.48;;;;;;;13.68;100.00;99316.09;15292811;19;20011;-54
2023/10/04 17:01:01;;;;;;;3.30;1.80;;;;;;;13.65;100.00;99299.31;15295017;19;20349;-52
2023/10/04 17:06:27;;;;;;;2.65;1.63;;;;;;;13.59;100.00;99291.81;15283800;19;20446;-51
2023/10/04 17:11:53;;;;;;;3.45;1.50;;;;;;;13.58;100.00;99292.88;15293885;19;20017;-55
2023/10/04 17:17:21;;;;;;;2.90;1.70;;;;;;;13.42;100.00;99313.38;15290491;19;20102;-53
2023/10/04 17:22:47;;;;;;;2.90;1.88;;;;;;;13.25;100.00;99299.69;15293143;19;20021;-51
2023/10/04 17:28:13;;;;;;;2.95;1.77;;;;;;;13.18;100.00;99295.06;15288555;19;20027;-50
2023/10/04 17:33:40;;;;;;;2.95;1.85;;;;;;;13.13;100.00;99283.88;15291252;19;20014;-51
2023/10/04 17:39:05;;;;;;;2.45;1.70;;;;;;;13.03;100.00;99279.41;15284436;19;20478;-51
2023/10/04 17:44:30;;;;;;;3.00;1.73;;;;;;;12.99;100.00;99285.28;15289254;19;20032;-53
2023/10/04 17:50:04;;;;;;;2.83;1.50;;;;;;;12.92;100.00;99288.59;15290043;19;20483;-53
2023/10/04 17:55:29;;;;;;;2.38;1.85;;;;;;;12.88;100.00;99284.47;15286428;19;20037;-54
2023/10/04 18:00:54;;;;;;;3.60;2.00;;;;;;;12.84;100.00;99280.41;15292166;19;20377;-55
2023/10/04 18:06:24;;;;;;;2.58;1.80;;;;;;;12.72;100.00;99287.06;15287642;19;20516;-53
2023/10/04 18:11:49;;;;;;;3.45;2.08;;;;;;;12.58;100.00;99286.56;15289183;19;20035;-56
2023/10/04 18:17:14;;;;;;;2.65;1.65;;;;;;;12.50;100.00;99289.19;15287183;19;20025;-54
2023/10/04 18:22:41;;;;;;;3.25;1.90;;;;;;;12.36;100.00;99297.81;15289242;19;20031;-54
2023/10/04 18:28:07;;;;;;;2.33;1.55;;;;;;;12.30;100.00;99300.09;15286574;19;20094;-54
2023/10/04 18:33:33;;;;;;;2.75;1.83;;;;;;;12.24;100.00;99306.13;15287410;19;20006;-52
2023/10/04 18:39:00;;;;;;;3.63;1.48;;;;;;;12.18;100.00;99302.19;15283177;19;20349;-56
2023/10/04 18:44:25;;;;;;;2.63;1.80;;;;;;;12.08;100.00;99306.78;15284616;19;20459;-52
2023/10/04 18:49:56;;;;;;;2.40;1.60;;;;;;;12.01;100.00;99313.75;15282344;19;20023;-53
2023/10/04 18:55:23;;;;;;;3.93;1.83;;;;;;;11.90;100.00;99314.78;15285065;19;20010;-51
2023/10/04 19:00:49;;;;;;;4.82;1.90;;;;;;;11.90;100.00;99313.91;15283980;19;20019;-53
2023/10/04 19:06:16;;;;;;;2.90;1.73;;;;;;;11.85;100.00;99314.34;15280162;19;20014;-53
2023/10/04 19:11:45;;;;;;;3.08;1.70;;;;;;;11.88;100.00;99316.78;15281910;19;20010;-51
2023/10/04 19:17:12;;;;;;;3.08;1.70;;;;;;;11.88;100.00;99306.81;15281864;19;20023;-51
2023/10/04 19:22:37;;;;;;;3.53;1.80;;;;;;;11.88;100.00;99300.56;15284933;19;20024;-50
2023/10/04 19:28:04;;;;;;;2.63;1.70;;;;;;;11.88;100.00;99295.16;15281509;19;20504;-53
2023/10/04 19:33:29;;;;;;;5.15;2.10;;;;;;;11.84;100.00;99293.75;15285785;19;20478;-52
2023/10/04 19:38:54;;;;;;;3.22;2.00;;;;;;;11.91;100.00;99277.81;15280422;19;20010;-55
2023/10/04 19:44:21;;;;;;;5.07;1.80;;;;;;;11.93;100.00;99292.88;15279684;19;20054;-52
2023/10/04 19:49:52;;;;;;;3.83;1.80;;;;;;;11.96;100.00;99291.72;15287558;19;20018;-54
2023/10/04 19:55:18;;;;;;;3.05;1.90;;;;;;;11.94;100.00;99294.56;15296602;19;20784;-50
2023/10/04 20:00:45;;;;;;;2.88;2.08;;;;;;;11.88;100.00;99297.88;15295643;19;20014;-54
2023/10/04 20:06:11;;;;;;;3.35;1.90;;;;;;;11.83;100.00;99289.34;15293027;19;20018;-55
2023/10/04 20:11:36;;;;;;;3.47;2.03;;;;;;;11.77;100.00;99292.66;15296674;19;20042;-56
2023/10/04 20:17:03;;;;;;;3.72;2.00;;;;;;;11.69;100.00;99288.84;15291115;19;20018;-51
2023/10/04 20:22:30;;;;;;;3.30;1.90;;;;;;;11.66;100.00;99289.13;15297427;19;20474;-50
2023/10/04 20:27:55;;;;;;;3.72;2.10;;;;;;;11.61;100.00;99285.19;15293697;19;20018;-54
2023/10/04 20:33:22;;;;;;;3.45;2.15;;;;;;;11.57;100.00;99290.03;15297903;19;20472;-52
2023/10/04 20:38:47;;;;;;;3.58;2.00;;;;;;;11.55;100.00;99279.34;15290654;19;20082;-50
2023/10/04 20:44:12;;;;;;;3.35;1.80;;;;;;;11.57;100.00;99277.38;15294123;19;20678;-49
2023/10/04 20:49:40;;;;;;;3.95;2.05;;;;;;;11.56;100.00;99280.22;15280590;19;20469;-50
2023/10/04 20:55:05;;;;;;;3.00;1.85;;;;;;;11.47;100.00;99271.16;15289913;19;20380;-53
2023/10/04 21:00:31;;;;;;;3.60;1.95;;;;;;;11.37;100.00;99281.13;15287038;19;20031;-55
2023/10/04 21:06:00;;;;;;;4.90;2.08;;;;;;;11.31;100.00;99279.84;15290846;19;20523;-53
2023/10/04 21:11:27;;;;;;;3.90;1.83;;;;;;;11.29;100.00;99278.31;15288051;19;20025;-54
2023/10/04 21:16:51;;;;;;;2.97;1.92;;;;;;;11.28;100.00;99276.59;15281655;19;20021;-54
2023/10/04 21:22:19;;;;;;;3.75;1.80;;;;;;;11.28;100.00;99274.75;15286173;19;20355;-52
2023/10/04 21:27:46;;;;;;;4.10;2.10;;;;;;;11.27;100.00;99269.50;15287248;19;20028;-54
2023/10/04 21:33:18;;;;;;;4.22;1.90;;;;;;;11.27;100.00;99270.34;15290459;19;20082;-52
2023/10/04 21:38:48;;;;;;;3.22;1.80;;;;;;;11.24;100.00;99262.53;15288540;19;20062;-50
2023/10/04 21:44:14;;;;;;;4.75;1.90;;;;;;;11.23;100.00;99252.75;15293293;19;20018;-50
2023/10/04 21:49:45;;;;;;;3.47;1.70;;;;;;;11.20;100.00;99253.88;15287134;19;20474;-52
2023/10/04 21:55:13;;;;;;;3.30;1.67;;;;;;;11.21;100.00;99255.59;15284356;19;20022;-52
2023/10/04 22:00:43;;;;;;;3.13;1.95;;;;;;;11.18;100.00;99250.47;15288742;19;20021;-50
2023/10/04 22:06:09;;;;;;;2.53;1.80;;;;;;;11.20;100.00;99247.66;15288151;19;20022;-52
2023/10/04 22:11:36;;;;;;;2.78;1.77;;;;;;;11.14;100.00;99241.00;15290752;19;20018;-53
2023/10/04 22:17:02;;;;;;;3.70;1.90;;;;;;;11.12;100.00;99239.41;15287564;19;20018;-52
2023/10/04 22:22:27;;;;;;;3.25;1.90;;;;;;;11.08;100.00;99223.53;15290662;19;20022;-53
2023/10/04 22:27:56;;;;;;;3.30;1.92;;;;;;;11.00;100.00;99223.38;15281328;19;20086;-52
2023/10/04 22:33:22;;;;;;;4.63;2.08;;;;;;;11.01;100.00;99221.56;15288144;19;20078;-50
2023/10/04 22:38:50;;;;;;;3.72;2.20;;;;;;;11.00;100.00;99212.59;15285785;19;20038;-51
2023/10/04 22:44:18;;;;;;;3.35;2.03;;;;;;;11.02;100.00;99210.63;15286953;19;20074;-52
2023/10/04 22:49:43;;;;;;;3.58;2.17;;;;;;;10.98;100.00;99202.97;15286611;19;20018;-50
2023/10/04 22:55:12;;;;;;;3.60;1.92;;;;;;;10.97;100.00;99195.88;15285944;19;20078;-53
2023/10/04 23:00:40;;;;;;;4.97;2.10;;;;;;;10.94;100.00;99191.63;15281406;19;20074;-50
2023/10/04 23:06:12;;;;;;;4.10;2.25;;;;;;;10.86;100.00;99203.13;15284403;19;20026;-53
2023/10/04 23:11:37;;;;;;;4.45;2.28;;;;;;;10.89;100.00;99207.38;15288634;19;20019;-51
2023/10/04 23:17:05;;;;;;;2.95;1.90;;;;;;;10.95;100.00;99193.34;15283496;19;20086;-51
2023/10/04 23:22:30;;;;;;;5.63;2.25;;;;;;;10.94;100.00;99188.94;15281619;19;20024;-52
2023/10/04 23:27:58;;;;;;;3.95;2.38;;;;;;;10.91;100.00;99183.81;15297462;19;20025;-51
2023/10/04 23:33:28;;;;;;;6.13;2.50;;;;;;;10.88;100.00;99184.09;15298708;19;20022;-51
2023/10/04 23:38:54;;;;;;;4.18;2.30;;;;;;;10.83;100.00;99176.44;15295580;19;20023;-50
2023/10/04 23:44:22;;;;;;;4.00;2.15;;;;;;;10.79;100.00;99175.91;15300221;19;20463;-50
2023/10/04 23:49:49;;;;;;;5.15;2.30;;;;;;;10.77;100.00;99161.72;15295458;19;20041;-50
2023/10/04 23:55:15;;;;;;;3.92;2.30;;;;;;;10.67;100.00;99141.19;15296682;19;20029;-52
